Time,TemperatureF,DewpointF,PressureIn,WindDirection,WindDirectionDegrees,WindSpeedMPH,WindSpeedGustMPH,Humidity,HourlyPrecipIn,Conditions,Clouds,dailyrainin,SoftwareType,DateUTC
2013-02-11 00:00:00,12.9,-8.5,30.33,WSW,248,0.0,0.0,37,0.00,RA,,0.00,WeatherDisplay:10.37,2013-02-11 05:00:00,
2013-02-11 00:05:00,12.9,-8.5,30.33,WSW,248,0.0,0.0,37,0.00,RA,,0.00,WeatherDisplay:10.37,2013-02-11 05:05:00,
2013-02-11 00:10:00,12.9,-8.5,30.33,WSW,248,0.0,0.0,37,0.00,CLR,,0.00,WeatherDisplay:10.37,2013-02-11 05:10:00,
2013-02-11 00:20:00,13.8,-7.2,30.32,WSW,248,0.0,0.0,38,0.00,CLR,,0.00,WeatherDisplay:10.37,2013-02-11 05:20:00,
2013-02-11 00:25:00,14.0,-7.0,30.32,WSW,248,0.0,0.0,38,0.00,CLR,,0.00,WeatherDisplay:10.37,2013-02-11 05:25:00,
2013-02-11 00:30:00,14.1,-6.9,30.31,WSW,248,0.0,0.0,38,0.00,CLR,,0.00,WeatherDisplay:10.37,2013-02-11 05:30:00,
2013-02-11 00:40:00,14.2,-6.8,30.31,WSW,248,0.0,0.0,38,0.00,CLR,,0.00,WeatherDisplay:10.37,2013-02-11 05:40:00,
2013-02-11 00:50:00,13.9,-7.1,30.32,WSW,248,0.0,0.0,38,0.00,CLR,,0.00,WeatherDisplay:10.37,2013-02-11 05:50:00,
2013-02-11 01:00:00,13.7,-7.8,30.31,WSW,248,0.0,0.0,37,0.00,CLR,,0.00,WeatherDisplay:10.37,2013-02-11 06:00:00,
2013-02-11 01:05:00,13.7,-7.2,30.31,WSW,248,0.0,0.0,38,0.00,CLR,,0.00,WeatherDisplay:10.37,2013-02-11 06:05:00,
2013-02-11 01:10:00,13.6,-7.3,30.31,WSW,248,0.0,0.0,38,0.00,CLR,,0.00,WeatherDisplay:10.37,2013-02-11 06:10:00,
2013-02-11 01:20:00,13.6,-7.3,30.31,WSW,248,0.0,0.0,38,0.00,CLR,,0.00,WeatherDisplay:10.37,2013-02-11 06:20:00,
2013-02-11 01:30:00,13.6,-6.8,30.29,WSW,248,0.0,0.0,39,0.00,CLR,,0.00,WeatherDisplay:10.37,2013-02-11 06:30:00,
2013-02-11 01:40:00,14.0,-6.4,30.29,WSW,248,0.0,0.0,39,0.00,CLR,,0.00,WeatherDisplay:10.37,2013-02-11 06:40:00,
2013-02-11 01:50:00,14.2,-5.8,30.29,WSW,248,0.0,0.0,40,0.00,CLR,,0.00,WeatherDisplay:10.37,2013-02-11 06:50:00,
2013-02-11 02:00:00,14.3,-5.6,30.29,WSW,248,0.0,0.0,40,0.00,CLR,,0.00,WeatherDisplay:10.37,2013-02-11 07:00:00,
2013-02-11 02:05:00,14.2,-5.8,30.29,WSW,248,0.0,0.0,40,0.00,CLR,,0.00,WeatherDisplay:10.37,2013-02-11 07:05:00,
2013-02-11 02:10:00,14.2,-5.8,30.29,WSW,248,0.0,0.0,40,0.00,CLR,,0.00,WeatherDisplay:10.37,2013-02-11 07:10:00,
2013-02-11 02:20:00,15.3,-4.3,30.28,WSW,248,0.0,0.0,41,0.00,CLR,,0.00,WeatherDisplay:10.37,2013-02-11 07:20:00,
2013-02-11 02:30:00,16.0,-3.1,30.28,WSW,248,0.0,0.0,42,0.00,CLR,,0.00,WeatherDisplay:10.37,2013-02-11 07:30:00,
2013-02-11 02:40:00,16.5,-2.7,30.28,WSW,248,0.0,0.0,42,0.00,CLR,,0.00,WeatherDisplay:10.37,2013-02-11 07:40:00,
2013-02-11 02:50:00,16.9,-2.3,30.27,WSW,248,0.0,0.0,42,0.00,CLR,,0.00,WeatherDisplay:10.37,2013-02-11 07:50:00,
2013-02-11 03:00:00,17.4,-1.8,30.26,WSW,237,0.0,0.0,42,0.00,CLR,,0.00,WeatherDisplay:10.37,2013-02-11 08:00:00,
2013-02-11 03:10:00,17.4,-1.8,30.26,SW,225,0.0,0.0,42,0.00,CLR,,0.00,WeatherDisplay:10.37,2013-02-11 08:10:00,
2013-02-11 03:20:00,18.5,-1.3,30.25,South,187,0.0,0.0,41,0.00,CLR,,0.00,WeatherDisplay:10.37,2013-02-11 08:20:00,
2013-02-11 03:30:00,18.8,-1.6,30.25,SSE,167,0.0,0.0,40,0.00,CLR,,0.00,WeatherDisplay:10.37,2013-02-11 08:30:00,
2013-02-11 03:40:00,19.0,-2.4,30.25,South,179,0.0,0.0,38,0.00,CLR,,0.00,WeatherDisplay:10.37,2013-02-11 08:40:00,
2013-02-11 03:50:00,19.0,-3.0,30.24,South,180,0.0,0.0,37,0.00,CLR,,0.00,WeatherDisplay:10.37,2013-02-11 08:50:00,
2013-02-11 04:00:00,19.0,-3.6,30.24,South,180,0.0,0.0,36,0.00,CLR,,0.00,WeatherDisplay:10.37,2013-02-11 09:00:00,
2013-02-11 04:05:00,19.0,-3.6,30.24,South,180,0.0,0.0,36,0.00,CLR,,0.00,WeatherDisplay:10.37,2013-02-11 09:05:00,
2013-02-11 04:10:00,19.0,-3.6,30.24,South,180,0.0,0.0,36,0.00,CLR,,0.00,WeatherDisplay:10.37,2013-02-11 09:10:00,
2013-02-11 04:20:00,19.3,-4.0,30.23,South,180,0.0,0.0,35,0.00,CLR,,0.00,WeatherDisplay:10.37,2013-02-11 09:20:00,
2013-02-11 04:30:00,19.2,-4.0,30.22,South,180,0.0,0.0,35,0.00,CLR,,0.00,WeatherDisplay:10.37,2013-02-11 09:30:00,
2013-02-11 04:40:00,19.2,-4.0,30.23,South,180,0.0,0.0,35,0.00,CLR,,0.00,WeatherDisplay:10.37,2013-02-11 09:40:00,
2013-02-11 04:50:00,19.2,-4.0,30.22,South,180,0.0,0.0,35,0.00,CLR,,0.00,WeatherDisplay:10.37,2013-02-11 09:50:00,
2013-02-11 05:00:00,19.2,-4.0,30.21,South,180,0.0,0.0,35,0.00,CLR,,0.00,WeatherDisplay:10.37,2013-02-11 10:00:00,
2013-02-11 05:05:00,19.2,-4.0,30.21,South,180,0.0,0.0,35,0.00,CLR,,0.00,WeatherDisplay:10.37,2013-02-11 10:05:00,
2013-02-11 05:10:00,19.2,-4.0,30.21,South,180,0.0,0.0,35,0.00,CLR,,0.00,WeatherDisplay:10.37,2013-02-11 10:10:00,
2013-02-11 05:20:00,19.2,-4.0,30.22,South,180,0.0,0.0,35,0.00,CLR,,0.00,WeatherDisplay:10.37,2013-02-11 10:20:00,
2013-02-11 05:30:00,19.2,-4.0,30.22,South,180,0.0,0.0,35,0.00,CLR,,0.00,WeatherDisplay:10.37,2013-02-11 10:30:00,
2013-02-11 05:40:00,19.6,-3.7,30.21,South,180,0.0,0.0,35,0.00,CLR,,0.00,WeatherDisplay:10.37,2013-02-11 10:40:00,
2013-02-11 05:50:00,19.9,-3.4,30.20,South,184,0.0,0.0,35,0.00,CLR,,0.00,WeatherDisplay:10.37,2013-02-11 10:50:00,
2013-02-11 06:00:00,20.3,-3.0,30.21,SSW,198,0.0,1.0,35,0.00,CLR,,0.00,WeatherDisplay:10.37,2013-02-11 11:00:00,
2013-02-11 06:05:00,20.6,-2.1,30.21,SSW,198,0.0,2.0,36,0.00,CLR,,0.00,WeatherDisplay:10.37,2013-02-11 11:05:00,
2013-02-11 06:10:00,20.8,-2.0,30.21,South,191,0.0,0.0,36,0.00,CLR,,0.00,WeatherDisplay:10.37,2013-02-11 11:10:00,
2013-02-11 06:20:00,21.7,0.0,30.21,SSW,192,0.0,2.0,38,0.00,CLR,,0.00,WeatherDisplay:10.37,2013-02-11 11:20:00,
2013-02-11 06:30:00,22.3,1.1,30.21,SSW,194,0.0,6.0,39,0.00,CLR,,0.00,WeatherDisplay:10.37,2013-02-11 11:30:00,
2013-02-11 06:40:00,23.0,2.8,30.18,South,175,0.0,5.0,41,0.00,CLR,,0.00,WeatherDisplay:10.37,2013-02-11 11:40:00,
2013-02-11 06:50:00,23.3,3.5,30.18,SSW,192,0.0,0.0,42,0.00,CLR,,0.00,WeatherDisplay:10.37,2013-02-11 11:50:00,
2013-02-11 07:00:00,23.5,4.2,30.18,South,184,0.0,7.0,43,0.00,CLR,,0.00,WeatherDisplay:10.37,2013-02-11 12:00:00,
2013-02-11 07:05:00,23.6,4.9,30.18,South,191,0.0,3.0,44,0.00,CLR,,0.00,WeatherDisplay:10.37,2013-02-11 12:05:00,
2013-02-11 07:10:00,23.7,5.4,30.17,SSW,204,1.0,6.0,45,0.00,CLR,,0.00,WeatherDisplay:10.37,2013-02-11 12:10:00,
2013-02-11 07:20:00,23.9,6.6,30.18,SSW,199,0.0,0.0,47,0.00,CLR,,0.00,WeatherDisplay:10.37,2013-02-11 12:20:00,
2013-02-11 07:30:00,24.3,8.3,30.17,SSW,207,0.0,6.0,50,0.00,CLR,,0.00,WeatherDisplay:10.37,2013-02-11 12:30:00,
2013-02-11 07:40:00,24.6,9.9,30.17,South,185,0.0,8.0,53,0.00,CLR,,0.00,WeatherDisplay:10.37,2013-02-11 12:40:00,
2013-02-11 07:50:00,25.0,11.1,30.16,SSW,197,2.0,8.0,55,0.00,CLR,,0.00,WeatherDisplay:10.37,2013-02-11 12:50:00,
2013-02-11 08:00:00,25.3,12.2,30.15,South,171,1.0,7.0,57,0.00,CLR,,0.00,WeatherDisplay:10.37,2013-02-11 13:00:00,
2013-02-11 08:05:00,25.7,12.6,30.15,South,174,0.0,4.0,57,0.00,CLR,,0.00,WeatherDisplay:10.37,2013-02-11 13:05:00,
2013-02-11 08:10:00,26.1,13.7,30.14,South,183,1.0,7.0,59,0.00,CLR,,0.00,WeatherDisplay:10.37,2013-02-11 13:10:00,
2013-02-11 08:20:00,26.8,15.1,30.13,South,179,0.0,3.0,61,0.00,CLR,,0.00,WeatherDisplay:10.37,2013-02-11 13:20:00,
2013-02-11 08:30:00,27.6,16.3,30.11,SSE,161,0.0,0.0,62,0.00,CLR,,0.00,WeatherDisplay:10.37,2013-02-11 13:30:00,
2013-02-11 08:40:00,28.2,17.2,30.12,South,173,0.0,6.0,63,0.00,CLR,,0.00,WeatherDisplay:10.37,2013-02-11 13:40:00,
2013-02-11 08:50:00,28.6,17.6,30.10,South,186,0.0,2.0,63,0.00,CLR,,0.00,WeatherDisplay:10.37,2013-02-11 13:50:00,
2013-02-11 09:00:00,29.1,18.4,30.10,South,177,0.0,5.0,64,0.00,CLR,,0.00,WeatherDisplay:10.37,2013-02-11 14:00:00,
2013-02-11 09:10:00,29.8,19.5,30.09,South,173,0.0,5.0,65,0.00,CLR,,0.00,WeatherDisplay:10.37,2013-02-11 14:10:00,
2013-02-11 09:20:00,30.9,20.9,30.08,South,181,0.0,5.0,66,0.00,CLR,,0.00,WeatherDisplay:10.37,2013-02-11 14:20:00,
2013-02-11 09:30:00,31.3,21.2,30.08,South,175,0.0,3.0,66,0.00,CLR,,0.00,WeatherDisplay:10.37,2013-02-11 14:30:00,
2013-02-11 09:40:00,31.6,21.9,30.08,South,177,0.0,6.0,67,0.00,CLR,,0.00,WeatherDisplay:10.37,2013-02-11 14:40:00,
2013-02-11 09:50:00,32.2,22.8,30.07,South,189,0.0,5.0,68,0.00,CLR,,0.00,WeatherDisplay:10.37,2013-02-11 14:50:00,
2013-02-11 10:00:00,32.4,23.4,30.06,SSW,199,1.0,8.0,69,0.00,CLR,,0.00,WeatherDisplay:10.37,2013-02-11 15:00:00,
2013-02-11 10:10:00,32.7,24.0,30.05,SSW,192,0.0,0.0,70,0.00,CLR,,0.00,WeatherDisplay:10.37,2013-02-11 15:10:00,
2013-02-11 10:20:00,32.8,24.4,30.05,SSE,161,1.0,5.0,71,0.00,CLR,,0.00,WeatherDisplay:10.37,2013-02-11 15:20:00,
2013-02-11 10:30:00,33.6,25.6,30.04,SSE,155,1.0,6.0,72,0.00,CLR,,0.00,WeatherDisplay:10.37,2013-02-11 15:30:00,
2013-02-11 10:40:00,34.5,26.8,30.03,South,173,0.0,4.0,73,0.00,CLR,,0.00,WeatherDisplay:10.37,2013-02-11 15:40:00,
2013-02-11 10:50:00,34.4,26.7,30.01,South,182,0.0,3.0,73,0.00,CLR,,0.00,WeatherDisplay:10.37,2013-02-11 15:50:00,
2013-02-11 11:00:00,34.8,27.0,30.00,SSE,159,0.0,0.0,73,0.00,CLR,,0.00,WeatherDisplay:10.37,2013-02-11 16:00:00,
2013-02-11 11:05:00,35.2,27.4,30.00,SSE,152,0.0,0.0,73,0.00,CLR,,0.00,WeatherDisplay:10.37,2013-02-11 16:05:00,
2013-02-11 11:10:00,35.2,27.4,30.00,SSE,152,0.0,0.0,73,0.00,CLR,,0.00,WeatherDisplay:10.37,2013-02-11 16:10:00,
2013-02-11 11:20:00,35.8,27.9,29.99,SSE,166,0.0,0.0,73,0.00,CLR,,0.00,WeatherDisplay:10.37,2013-02-11 16:20:00,
2013-02-11 11:30:00,36.0,28.1,29.97,SSE,154,0.0,0.0,73,0.00,CLR,,0.00,WeatherDisplay:10.37,2013-02-11 16:30:00,
2013-02-11 11:40:00,36.3,28.2,29.96,SSE,153,0.0,7.0,72,0.00,CLR,,0.00,WeatherDisplay:10.37,2013-02-11 16:40:00,
2013-02-11 11:50:00,36.3,28.2,29.95,SSE,153,0.0,8.0,72,0.00,CLR,,0.00,WeatherDisplay:10.37,2013-02-11 16:50:00,
2013-02-11 12:00:00,36.0,27.5,29.94,SE,134,0.0,0.0,71,0.02,RA,,0.02,WeatherDisplay:10.37,2013-02-11 17:00:00,
2013-02-11 12:10:00,36.1,27.6,29.93,SE,143,3.0,10.0,71,0.02,RA,,0.04,WeatherDisplay:10.37,2013-02-11 17:10:00,
2013-02-11 12:20:00,36.3,28.2,29.92,South,170,0.0,8.0,72,0.00,RA,,0.06,WeatherDisplay:10.37,2013-02-11 17:20:00,
2013-02-11 12:30:00,36.4,28.2,29.92,SSE,162,0.0,12.0,72,0.00,RA,,0.08,WeatherDisplay:10.37,2013-02-11 17:30:00,
2013-02-11 12:40:00,36.5,28.7,29.90,SSE,157,2.0,12.0,73,0.00,RA,,0.10,WeatherDisplay:10.37,2013-02-11 17:40:00,
2013-02-11 12:50:00,36.9,29.3,29.88,SSE,153,1.0,10.0,74,0.00,RA,,0.12,WeatherDisplay:10.37,2013-02-11 17:50:00,
2013-02-11 13:00:00,37.3,29.8,29.87,SSE,160,1.0,6.0,74,0.00,CLR,,0.12,WeatherDisplay:10.37,2013-02-11 18:00:00,
2013-02-11 13:05:00,37.4,29.9,29.87,SSE,167,0.0,2.0,74,0.00,CLR,,0.12,WeatherDisplay:10.37,2013-02-11 18:05:00,
2013-02-11 13:10:00,37.4,29.8,29.87,South,177,0.0,4.0,74,0.02,RA,,0.14,WeatherDisplay:10.37,2013-02-11 18:10:00,
2013-02-11 13:20:00,37.1,29.6,29.86,SSE,166,2.0,10.0,74,0.00,CLR,,0.14,WeatherDisplay:10.37,2013-02-11 18:20:00,
2013-02-11 13:30:00,37.3,30.1,29.85,South,171,0.0,6.0,75,0.02,RA,,0.16,WeatherDisplay:10.37,2013-02-11 18:30:00,
2013-02-11 13:40:00,37.8,30.9,29.85,SSW,198,1.0,6.0,76,0.00,CLR,,0.16,WeatherDisplay:10.37,2013-02-11 18:40:00,
2013-02-11 13:50:00,38.1,31.5,29.83,South,187,1.0,5.0,77,0.00,RA,,0.18,WeatherDisplay:10.37,2013-02-11 18:50:00,
2013-02-11 14:00:00,38.2,31.9,29.83,SSW,193,0.0,8.0,78,0.00,CLR,,0.18,WeatherDisplay:10.37,2013-02-11 19:00:00,
2013-02-11 14:05:00,38.3,32.0,29.83,SSW,198,0.0,4.0,78,0.00,CLR,,0.18,WeatherDisplay:10.37,2013-02-11 19:05:00,
2013-02-11 14:10:00,38.3,32.0,29.82,South,190,0.0,3.0,78,0.00,CLR,,0.18,WeatherDisplay:10.37,2013-02-11 19:10:00,
2013-02-11 14:20:00,38.5,32.5,29.82,SW,218,0.0,6.0,79,0.00,CLR,,0.18,WeatherDisplay:10.37,2013-02-11 19:20:00,
2013-02-11 14:30:00,38.2,32.2,29.82,SSW,213,1.0,5.0,79,0.00,RA,,0.20,WeatherDisplay:10.37,2013-02-11 19:30:00,
2013-02-11 14:40:00,38.2,32.3,29.82,South,191,0.0,0.0,79,0.00,CLR,,0.20,WeatherDisplay:10.37,2013-02-11 19:40:00,
2013-02-11 14:50:00,38.2,32.3,29.82,South,180,0.0,0.0,79,0.00,CLR,,0.20,WeatherDisplay:10.37,2013-02-11 19:50:00,
2013-02-11 15:00:00,38.2,32.6,29.82,SSW,202,0.0,0.0,80,0.00,CLR,,0.20,WeatherDisplay:10.37,2013-02-11 20:00:00,
2013-02-11 15:05:00,38.3,32.7,29.82,South,187,1.0,5.0,80,0.02,RA,,0.22,WeatherDisplay:10.37,2013-02-11 20:05:00,
2013-02-11 15:10:00,38.6,33.0,29.81,SSW,192,2.0,6.0,80,0.00,RA,,0.22,WeatherDisplay:10.37,2013-02-11 20:10:00,
2013-02-11 15:20:00,39.2,33.9,29.81,SSW,201,0.0,5.0,81,0.00,CLR,,0.22,WeatherDisplay:10.37,2013-02-11 20:20:00,
2013-02-11 15:30:00,39.7,34.7,29.80,SSW,211,1.0,4.0,82,0.00,CLR,,0.22,WeatherDisplay:10.37,2013-02-11 20:30:00,
2013-02-11 15:40:00,40.3,35.6,29.79,SSW,202,1.0,13.0,83,0.00,CLR,,0.22,WeatherDisplay:10.37,2013-02-11 20:40:00,
2013-02-11 15:50:00,40.6,36.2,29.78,SSW,198,0.0,8.0,84,0.00,CLR,,0.22,WeatherDisplay:10.37,2013-02-11 20:50:00,
2013-02-11 16:00:00,40.6,36.5,29.77,SSW,205,0.0,3.0,85,0.00,CLR,,0.22,WeatherDisplay:10.37,2013-02-11 21:00:00,
2013-02-11 16:05:00,40.7,36.5,29.77,South,190,1.0,6.0,85,0.00,CLR,,0.22,WeatherDisplay:10.37,2013-02-11 21:05:00,
2013-02-11 16:10:00,40.6,36.5,29.76,South,177,0.0,6.0,85,0.00,CLR,,0.22,WeatherDisplay:10.37,2013-02-11 21:10:00,
2013-02-11 16:20:00,40.6,36.5,29.76,SSW,200,1.0,5.0,85,0.00,CLR,,0.22,WeatherDisplay:10.37,2013-02-11 21:20:00,
2013-02-11 16:30:00,40.5,36.3,29.75,SSW,198,1.0,5.0,85,0.00,CLR,,0.22,WeatherDisplay:10.37,2013-02-11 21:30:00,
2013-02-11 16:40:00,40.5,36.3,29.75,SW,217,2.0,8.0,85,0.00,CLR,,0.22,WeatherDisplay:10.37,2013-02-11 21:40:00,
2013-02-11 16:50:00,40.1,36.2,29.75,SW,218,0.0,6.0,86,0.00,CLR,,0.22,WeatherDisplay:10.37,2013-02-11 21:50:00,
2013-02-11 17:00:00,40.1,36.2,29.74,SW,221,2.0,14.0,86,0.00,CLR,,0.22,WeatherDisplay:10.37,2013-02-11 22:00:00,
2013-02-11 17:05:00,40.1,36.2,29.74,SSW,211,1.0,14.0,86,0.00,CLR,,0.22,WeatherDisplay:10.37,2013-02-11 22:05:00,
2013-02-11 17:10:00,40.1,36.2,29.74,SSW,195,0.0,5.0,86,0.00,CLR,,0.22,WeatherDisplay:10.37,2013-02-11 22:10:00,
2013-02-11 17:20:00,40.1,36.2,29.74,WSW,242,1.0,6.0,86,0.00,CLR,,0.22,WeatherDisplay:10.37,2013-02-11 22:20:00,
2013-02-11 17:30:00,40.1,36.5,29.74,SW,217,1.0,5.0,87,0.00,CLR,,0.22,WeatherDisplay:10.37,2013-02-11 22:30:00,
2013-02-11 17:40:00,40.1,36.5,29.73,SW,229,5.0,14.0,87,0.00,CLR,,0.22,WeatherDisplay:10.37,2013-02-11 22:40:00,
2013-02-11 17:50:00,40.0,36.4,29.73,SW,219,1.0,14.0,87,0.00,CLR,,0.22,WeatherDisplay:10.37,2013-02-11 22:50:00,
2013-02-11 18:00:00,39.9,36.7,29.74,SW,226,2.0,14.0,88,0.00,CLR,,0.22,WeatherDisplay:10.37,2013-02-11 23:00:00,
2013-02-11 18:05:00,39.9,36.7,29.73,SW,224,6.0,14.0,88,0.00,CLR,,0.22,WeatherDisplay:10.37,2013-02-11 23:05:00,
2013-02-11 18:10:00,39.8,36.6,29.74,SW,234,0.0,3.0,88,0.00,CLR,,0.22,WeatherDisplay:10.37,2013-02-11 23:10:00,
2013-02-11 18:20:00,39.7,36.4,29.73,SSW,202,0.0,14.0,88,0.00,CLR,,0.22,WeatherDisplay:10.37,2013-02-11 23:20:00,
2013-02-11 18:30:00,39.6,36.4,29.72,SSW,212,2.0,14.0,88,0.00,CLR,,0.22,WeatherDisplay:10.37,2013-02-11 23:30:00,
2013-02-11 18:40:00,39.6,36.3,29.72,SW,216,7.0,14.0,88,0.00,CLR,,0.22,WeatherDisplay:10.37,2013-02-11 23:40:00,
2013-02-11 18:50:00,39.6,36.3,29.72,SW,215,6.0,14.0,88,0.00,CLR,,0.22,WeatherDisplay:10.37,2013-02-11 23:50:00,
2013-02-11 19:00:00,39.6,36.4,29.72,SSW,202,3.0,14.0,88,0.00,CLR,,0.22,WeatherDisplay:10.37,2013-02-12 00:00:00,
2013-02-11 19:05:00,39.7,36.5,29.71,SSW,209,1.0,14.0,88,0.00,CLR,,0.22,WeatherDisplay:10.37,2013-02-12 00:05:00,
2013-02-11 19:10:00,39.7,36.4,29.71,SW,217,3.0,14.0,88,0.00,CLR,,0.22,WeatherDisplay:10.37,2013-02-12 00:10:00,
2013-02-11 19:20:00,39.4,36.5,29.70,SW,220,0.0,3.0,89,0.00,CLR,,0.22,WeatherDisplay:10.37,2013-02-12 00:20:00,
2013-02-11 19:30:00,39.6,36.6,29.70,SSW,196,0.0,5.0,89,0.00,CLR,,0.22,WeatherDisplay:10.37,2013-02-12 00:30:00,
2013-02-11 19:40:00,39.5,36.5,29.69,SSW,212,1.0,14.0,89,0.00,CLR,,0.22,WeatherDisplay:10.37,2013-02-12 00:40:00,
2013-02-11 19:50:00,39.6,36.6,29.69,SW,227,2.0,14.0,89,0.00,CLR,,0.22,WeatherDisplay:10.37,2013-02-12 00:50:00,
2013-02-11 20:00:00,39.4,36.4,29.69,SW,235,0.0,14.0,89,0.00,CLR,,0.22,WeatherDisplay:10.37,2013-02-12 01:00:00,
2013-02-11 20:05:00,39.4,36.4,29.69,SW,227,0.0,6.0,89,0.00,CLR,,0.22,WeatherDisplay:10.37,2013-02-12 01:05:00,
2013-02-11 20:10:00,39.4,36.4,29.69,WSW,255,0.0,14.0,89,0.00,CLR,,0.22,WeatherDisplay:10.37,2013-02-12 01:10:00,
2013-02-11 20:20:00,39.4,36.4,29.69,SW,222,2.0,7.0,89,0.00,CLR,,0.22,WeatherDisplay:10.37,2013-02-12 01:20:00,
2013-02-11 20:30:00,39.2,36.2,29.67,SW,224,2.0,14.0,89,0.00,CLR,,0.22,WeatherDisplay:10.37,2013-02-12 01:30:00,
2013-02-11 20:40:00,39.2,36.5,29.67,SSW,212,1.0,14.0,90,0.00,CLR,,0.22,WeatherDisplay:10.37,2013-02-12 01:40:00,
2013-02-11 20:50:00,38.9,36.2,29.69,SW,235,0.0,14.0,90,0.00,CLR,,0.22,WeatherDisplay:10.37,2013-02-12 01:50:00,
2013-02-11 21:00:00,38.8,36.2,29.69,SW,230,1.0,5.0,90,0.00,CLR,,0.22,WeatherDisplay:10.37,2013-02-12 02:00:00,
2013-02-11 21:05:00,38.8,36.2,29.69,SW,235,2.0,14.0,90,0.00,CLR,,0.22,WeatherDisplay:10.37,2013-02-12 02:05:00,
2013-02-11 21:10:00,38.8,36.2,29.70,WSW,243,0.0,14.0,90,0.00,CLR,,0.22,WeatherDisplay:10.37,2013-02-12 02:10:00,
2013-02-11 21:20:00,38.7,36.0,29.69,WSW,257,1.0,7.0,90,0.00,CLR,,0.22,WeatherDisplay:10.37,2013-02-12 02:20:00,
2013-02-11 21:30:00,38.5,35.8,29.69,WSW,253,1.0,14.0,90,0.00,CLR,,0.22,WeatherDisplay:10.37,2013-02-12 02:30:00,
2013-02-11 21:40:00,38.3,35.6,29.69,WSW,253,0.0,6.0,90,0.00,CLR,,0.22,WeatherDisplay:10.37,2013-02-12 02:40:00,
2013-02-11 21:50:00,38.3,35.6,29.68,WSW,244,0.0,14.0,90,0.00,CLR,,0.22,WeatherDisplay:10.37,2013-02-12 02:50:00,
2013-02-11 22:00:00,38.1,35.4,29.67,SW,232,1.0,14.0,90,0.00,CLR,,0.22,WeatherDisplay:10.37,2013-02-12 03:00:00,
2013-02-11 22:05:00,38.1,35.4,29.67,SW,235,1.0,14.0,90,0.00,CLR,,0.22,WeatherDisplay:10.37,2013-02-12 03:05:00,
2013-02-11 22:10:00,38.1,35.4,29.68,WSW,246,0.0,14.0,90,0.00,CLR,,0.22,WeatherDisplay:10.37,2013-02-12 03:10:00,
2013-02-11 22:20:00,37.9,35.3,29.67,WSW,240,0.0,0.0,90,0.00,CLR,,0.22,WeatherDisplay:10.37,2013-02-12 03:20:00,
2013-02-11 22:30:00,37.8,35.1,29.67,WSW,237,0.0,3.0,90,0.00,CLR,,0.22,WeatherDisplay:10.37,2013-02-12 03:30:00,
2013-02-11 22:40:00,37.8,35.1,29.68,West,271,0.0,4.0,90,0.00,CLR,,0.22,WeatherDisplay:10.37,2013-02-12 03:40:00,
2013-02-11 22:50:00,37.8,35.1,29.68,WSW,250,0.0,0.0,90,0.00,CLR,,0.22,WeatherDisplay:10.37,2013-02-12 03:50:00,
2013-02-11 23:00:00,37.7,35.0,29.69,WSW,253,1.0,3.0,90,0.00,CLR,,0.22,WeatherDisplay:10.37,2013-02-12 04:00:00,
2013-02-11 23:05:00,37.8,35.4,29.69,West,265,2.0,9.0,91,0.00,CLR,,0.22,WeatherDisplay:10.37,2013-02-12 04:05:00,
2013-02-11 23:10:00,37.8,35.4,29.69,WNW,293,5.0,12.0,91,0.00,CLR,,0.22,WeatherDisplay:10.37,2013-02-12 04:10:00,
2013-02-11 23:20:00,37.8,35.4,29.69,WNW,298,6.0,12.0,91,0.00,CLR,,0.22,WeatherDisplay:10.37,2013-02-12 04:20:00,
2013-02-11 23:30:00,37.1,34.7,29.69,NW,305,1.0,8.0,91,0.00,CLR,,0.22,WeatherDisplay:10.37,2013-02-12 04:30:00,
2013-02-11 23:40:00,36.5,34.1,29.69,WNW,299,7.0,8.0,91,0.00,CLR,,0.22,WeatherDisplay:10.37,2013-02-12 04:40:00,
2013-02-11 23:50:00,36.0,33.3,29.69,WNW,292,0.0,7.0,90,0.00,CLR,,0.22,WeatherDisplay:10.37,2013-02-12 04:50:00,